KFST/FST METAR and TAF weather

Enter ICAO airport designator
Station Type Date Time Source
KFST METAR 2021/02/28 03:53 UTC NOAA

KFST 280353Z AUTO 19005KT 10SM CLR 16/09 A2984 RMK AO2 SLP071 T01610094 $


Station Type Date Time Source
KFST Decoded METAR 2021/02/28 03:53 UTC NOAA

FORT STOCKTON PECOS CO AIRPORT , TX, United States (KFST) 30-55N 102-55W 918M
Feb 27, 2021 - 10:53 PM EST / 2021.02.28 0353 UTC
Wind: from the S (190 degrees) at 6 MPH (5 KT):0
Visibility: 10 mile(s):0
Sky conditions: clear
Temperature: 61.0 F (16.1 C)
Dew Point: 48.9 F (9.4 C)
Relative Humidity: 64%
Pressure (altimeter): 29.84 in. Hg (1010 hPa)
ob: KFST 280353Z AUTO 19005KT 10SM CLR 16/09 A2984 RMK AO2 SLP071 T01610094
cycle: 4

Station Type Date Time Source
KFST TAF 2021/02/27 20:58 UTC NOAA

TAF
AMD KFST 271958Z 2720/2818 05008KT P6SM BKN200
FM272100 25011G18KT P6SM BKN200
FM280100 21007KT P6SM BKN200

Example: see airport list